EPZG/IEG METAR and TAF weather

Enter ICAO airport designator
Station Type Date Time Source
EPZG METAR 2020/02/16 20:00 UTC NOAA

EPZG 162000Z 19016G26KT 170V230 CAVOK 15/M00 Q1006


Station Type Date Time Source
EPZG Decoded METAR 2020/02/16 20:00 UTC NOAA

Zielona Gora, Poland (EPZG) 51-56N 015-32E 192M
Feb 16, 2020 - 03:00 PM EST / 2020.02.16 2000 UTC
Wind: from the S (190 degrees) at 18 MPH (16 KT) gusting to 30 MPH (26 KT) (direction variable):0
Visibility: greater than 7 mile(s):0
Temperature: 59 F (15 C)
Dew Point: 32 F (0 C)
Relative Humidity: 35%
Pressure (altimeter): 29.71 in. Hg (1006 hPa)
ob: EPZG 162000Z 19016G26KT 170V230 CAVOK 15/M00 Q1006
cycle: 20

Station Type Date Time Source
EPZG TAF 2012/06/28 21:49 UTC NOAA

TAF EPZG 282000Z 2821/2906 VRB02KT CAVOK
TEMPO 2823/2904 5000 BR PROB30 2900/2904 1500 BR BKN005

Example: see airport list